createdAt,value
2022-12-12T00:04:57.337Z,-0.88
2022-12-12T00:10:00.873Z,-0.83
2022-12-12T00:15:04.548Z,-0.78
2022-12-12T00:20:07.768Z,-0.75
2022-12-12T00:25:11.562Z,-0.76
2022-12-12T00:30:14.742Z,-0.73
2022-12-12T00:35:17.846Z,-0.67
2022-12-12T00:40:21.060Z,-0.66
2022-12-12T00:45:25.152Z,-0.66
2022-12-12T00:50:28.096Z,-0.61
2022-12-12T00:55:31.102Z,-0.58
2022-12-12T01:00:34.456Z,-0.57
2022-12-12T01:05:37.320Z,-0.56
2022-12-12T01:10:40.429Z,-0.50
2022-12-12T01:15:43.375Z,-0.46
2022-12-12T01:20:47.057Z,-0.43
2022-12-12T01:25:50.169Z,-0.40
2022-12-12T01:30:53.157Z,-0.34
2022-12-12T01:35:56.881Z,-0.27
2022-12-12T01:41:00.310Z,-0.21
2022-12-12T01:46:03.222Z,-0.19
2022-12-12T01:51:11.635Z,-0.16
2022-12-12T01:56:17.325Z,-0.11
2022-12-12T02:01:21.120Z,-0.05
2022-12-12T02:06:27.639Z,-0.04
2022-12-12T02:11:32.929Z,-0.04
2022-12-12T02:16:51.155Z,-0.01
2022-12-12T02:21:59.999Z,0.04
2022-12-12T02:27:24.099Z,0.05
2022-12-12T02:32:52.605Z,0.05
2022-12-12T02:38:15.272Z,0.03
2022-12-12T02:43:33.744Z,0.04
2022-12-12T02:49:05.831Z,0.07
2022-12-12T02:54:15.903Z,0.08
2022-12-12T02:59:25.568Z,0.05
2022-12-12T03:05:09.227Z,0.04
2022-12-12T03:10:17.455Z,0.08
2022-12-12T03:15:31.419Z,0.14
2022-12-12T03:20:45.691Z,0.18
2022-12-12T03:26:04.667Z,0.19
2022-12-12T03:31:10.809Z,0.23
2022-12-12T03:36:20.206Z,0.27
2022-12-12T03:41:28.945Z,0.28
2022-12-12T03:46:40.760Z,0.28
2022-12-12T03:51:50.085Z,0.29
2022-12-12T03:57:19.686Z,0.35
2022-12-12T04:02:30.470Z,0.42
2022-12-12T04:07:41.735Z,0.46
2022-12-12T04:13:00.212Z,0.48
2022-12-12T04:18:14.265Z,0.52
2022-12-12T04:23:39.189Z,0.58
2022-12-12T04:28:48.540Z,0.61
2022-12-12T04:33:56.982Z,0.63
2022-12-12T04:39:01.312Z,0.68
2022-12-12T04:44:10.232Z,0.73
2022-12-12T04:49:20.206Z,0.75
2022-12-12T04:55:03.274Z,0.75
2022-12-12T05:00:08.401Z,0.77
2022-12-12T05:05:20.967Z,0.80
2022-12-12T05:10:24.208Z,0.81
2022-12-12T05:15:29.227Z,0.79
2022-12-12T05:20:32.235Z,0.79
2022-12-12T05:25:35.161Z,0.83
2022-12-12T05:30:38.293Z,0.88
2022-12-12T05:35:41.454Z,0.89
2022-12-12T05:40:44.367Z,0.90
2022-12-12T05:45:47.428Z,0.93
2022-12-12T05:50:50.582Z,0.98
2022-12-12T05:55:53.485Z,1.03
2022-12-12T06:01:01.546Z,1.01
2022-12-12T06:06:06.693Z,1.01
2022-12-12T06:11:10.083Z,1.05
2022-12-12T06:16:18.717Z,1.07
2022-12-12T06:21:22.341Z,1.07
2022-12-12T06:26:25.448Z,1.06
2022-12-12T06:31:28.510Z,1.10
2022-12-12T06:36:31.971Z,1.14
2022-12-12T06:41:35.080Z,1.14
2022-12-12T06:46:38.119Z,1.14
2022-12-12T06:51:44.859Z,1.18
2022-12-12T06:56:48.779Z,1.20
2022-12-12T07:01:51.978Z,1.21
2022-12-12T07:06:55.131Z,1.23
2022-12-12T07:11:58.453Z,1.25
2022-12-12T07:17:01.321Z,1.27
2022-12-12T07:22:09.391Z,1.28
2022-12-12T07:27:15.758Z,1.28
2022-12-12T07:32:22.861Z,1.30
2022-12-12T07:37:26.278Z,1.30
2022-12-12T07:42:29.490Z,1.30
2022-12-12T07:47:32.394Z,1.33
2022-12-12T07:52:35.403Z,1.40
2022-12-12T07:57:39.541Z,1.48
2022-12-12T08:02:42.435Z,1.50
2022-12-12T08:07:45.446Z,1.48
2022-12-12T08:12:48.551Z,1.52
2022-12-12T08:17:51.490Z,1.61
2022-12-12T08:22:54.462Z,1.70
2022-12-12T08:27:57.367Z,1.76
2022-12-12T08:33:04.885Z,1.92
2022-12-12T08:38:10.752Z,2.16
2022-12-12T08:43:13.876Z,2.43
2022-12-12T08:48:16.870Z,2.67
2022-12-12T08:53:20.132Z,2.82
2022-12-12T08:58:23.097Z,2.93
2022-12-12T09:03:29.433Z,3.01
2022-12-12T09:08:33.171Z,3.14
2022-12-12T09:13:37.941Z,3.36
2022-12-12T09:18:48.099Z,3.45
2022-12-12T09:23:52.457Z,3.45
2022-12-12T09:28:55.424Z,3.43
2022-12-12T09:33:58.574Z,3.51
2022-12-12T09:39:01.786Z,3.56
2022-12-12T09:44:16.361Z,3.48
2022-12-12T09:49:27.560Z,3.29
2022-12-12T09:54:30.570Z,3.15
2022-12-12T09:59:41.250Z,3.14
2022-12-12T10:05:00.347Z,3.16
2022-12-12T10:10:21.647Z,3.15
2022-12-12T10:15:44.137Z,3.09
2022-12-12T10:20:54.005Z,3.09
2022-12-12T10:26:02.081Z,3.08
2022-12-12T10:31:07.673Z,3.02
2022-12-12T10:36:35.278Z,3.05
2022-12-12T10:41:54.054Z,3.06
2022-12-12T10:47:07.993Z,2.98
2022-12-12T10:52:20.346Z,2.98
2022-12-12T10:57:26.422Z,3.06
2022-12-12T11:02:43.424Z,3.19
2022-12-12T11:07:50.383Z,3.26
2022-12-12T11:13:16.723Z,3.23
2022-12-12T11:18:22.279Z,3.25
2022-12-12T11:23:28.945Z,3.29
2022-12-12T11:28:35.335Z,3.35
2022-12-12T11:33:43.685Z,3.51
2022-12-12T11:38:52.007Z,3.59
2022-12-12T11:44:00.094Z,3.52
2022-12-12T11:49:05.203Z,3.47
2022-12-12T11:54:12.608Z,3.44
2022-12-12T11:59:45.721Z,3.41
2022-12-12T12:05:26.834Z,3.32
2022-12-12T12:10:35.664Z,3.05
2022-12-12T12:15:51.372Z,2.92
2022-12-12T12:21:26.999Z,2.84
2022-12-12T12:27:02.256Z,2.87
2022-12-12T12:32:26.001Z,2.89
2022-12-12T12:38:06.486Z,2.74
2022-12-12T12:43:31.405Z,2.65
2022-12-12T12:48:39.741Z,2.56
2022-12-12T12:54:05.637Z,2.40
2022-12-12T12:59:23.205Z,2.24
2022-12-12T13:04:28.803Z,2.12
2022-12-12T13:09:50.133Z,2.02
2022-12-12T13:14:58.360Z,1.92
2022-12-12T13:20:01.474Z,1.94
2022-12-12T13:25:15.735Z,1.98
2022-12-12T13:30:24.889Z,1.92
2022-12-12T13:35:38.139Z,1.80
2022-12-12T13:40:43.066Z,1.74
2022-12-12T13:45:46.072Z,1.68
2022-12-12T13:51:27.611Z,1.59
2022-12-12T13:56:46.805Z,1.46
2022-12-12T14:01:57.020Z,1.37
2022-12-12T14:07:04.171Z,1.30
2022-12-12T14:12:15.778Z,1.23
2022-12-12T14:17:24.057Z,1.16
2022-12-12T14:22:49.855Z,1.10
2022-12-12T14:27:52.653Z,1.06
2022-12-12T14:33:22.306Z,1.06
2022-12-12T14:38:42.576Z,1.08
2022-12-12T14:44:36.244Z,1.06
2022-12-12T14:49:18.206Z,0.99
2022-12-12T14:54:24.568Z,0.95
2022-12-12T14:59:34.251Z,0.91
2022-12-12T15:04:39.817Z,0.88
2022-12-12T15:09:48.663Z,0.86
2022-12-12T15:14:54.741Z,0.84
2022-12-12T15:20:15.206Z,0.83
2022-12-12T15:25:22.461Z,0.79
2022-12-12T15:30:30.486Z,0.78
2022-12-12T15:35:33.700Z,0.77
2022-12-12T15:40:38.420Z,0.77
2022-12-12T15:45:51.468Z,0.77
2022-12-12T15:50:57.416Z,0.76
2022-12-12T15:56:12.203Z,0.74
2022-12-12T16:01:20.943Z,0.74
2022-12-12T16:06:26.551Z,0.74
2022-12-12T16:11:51.064Z,0.72
2022-12-12T16:17:12.504Z,0.74
2022-12-12T16:22:21.242Z,0.75
2022-12-12T16:27:24.148Z,0.75
2022-12-12T16:32:27.050Z,0.74
2022-12-12T16:37:29.954Z,0.71
2022-12-12T16:42:36.251Z,0.68
2022-12-12T16:47:39.451Z,0.67
2022-12-12T16:52:42.364Z,0.65
2022-12-12T16:57:45.235Z,0.63
2022-12-12T17:02:48.161Z,0.61
2022-12-12T17:07:52.985Z,0.60
2022-12-12T17:12:55.916Z,0.59
2022-12-12T17:17:59.740Z,0.56
2022-12-12T17:28:22.855Z,0.54
2022-12-12T17:33:26.183Z,0.53
2022-12-12T17:38:30.694Z,0.51
2022-12-12T17:43:33.924Z,0.51
2022-12-12T17:48:36.838Z,0.49
2022-12-12T17:53:40.076Z,0.47
2022-12-12T17:58:45.810Z,0.43
2022-12-12T18:03:49.836Z,0.40
2022-12-12T18:08:54.611Z,0.37
2022-12-12T18:14:03.164Z,0.35
2022-12-12T18:19:06.129Z,0.33
2022-12-12T18:24:09.237Z,0.32
2022-12-12T18:29:13.646Z,0.32
2022-12-12T18:34:17.833Z,0.29
2022-12-12T18:39:20.918Z,0.27
2022-12-12T18:44:23.926Z,0.25
2022-12-12T18:49:27.238Z,0.25
2022-12-12T18:54:30.762Z,0.26
2022-12-12T18:59:33.867Z,0.24
2022-12-12T19:04:36.683Z,0.21
2022-12-12T19:09:40.963Z,0.21
2022-12-12T19:15:15.188Z,0.21
2022-12-12T19:20:07.535Z,0.21
2022-12-12T19:25:10.402Z,0.22
2022-12-12T19:30:15.859Z,0.23
2022-12-12T19:35:19.443Z,0.17
2022-12-12T19:40:23.314Z,0.07
2022-12-12T19:45:26.219Z,-0.02
2022-12-12T19:50:29.127Z,-0.10
2022-12-12T19:55:32.131Z,-0.16
2022-12-12T20:00:35.035Z,-0.21
2022-12-12T20:05:38.103Z,-0.26
2022-12-12T20:10:41.045Z,-0.29
2022-12-12T20:15:44.003Z,-0.31
2022-12-12T20:20:47.057Z,-0.31
2022-12-12T20:25:49.962Z,-0.29
2022-12-12T20:31:13.048Z,-0.27
2022-12-12T20:36:19.329Z,-0.28
2022-12-12T20:41:27.755Z,-0.33
2022-12-12T20:46:34.443Z,-0.37
2022-12-12T20:57:01.248Z,-0.57
2022-12-12T21:02:04.444Z,-0.65
2022-12-12T21:07:07.367Z,-0.68
2022-12-12T21:12:10.271Z,-0.72
2022-12-12T21:17:13.171Z,-0.80
2022-12-12T21:22:16.097Z,-0.84
2022-12-12T21:27:18.983Z,-0.90
2022-12-12T21:32:22.435Z,-0.99
2022-12-12T21:37:25.406Z,-1.06
2022-12-12T21:42:28.306Z,-1.12
2022-12-12T21:47:31.313Z,-1.18
2022-12-12T21:52:34.731Z,-1.25
2022-12-12T21:57:37.634Z,-1.29
2022-12-12T22:02:40.584Z,-1.30
2022-12-12T22:07:43.655Z,-1.33
2022-12-12T22:12:56.922Z,-1.35
2022-12-12T22:18:00.622Z,-1.34
2022-12-12T22:23:03.525Z,-1.35
2022-12-12T22:28:06.324Z,-1.42
2022-12-12T22:33:09.229Z,-1.49
2022-12-12T22:38:12.241Z,-1.57
2022-12-12T22:43:15.143Z,-1.64
2022-12-12T22:48:18.457Z,-1.71
2022-12-12T22:53:21.765Z,-1.77
2022-12-12T22:58:25.387Z,-1.82
2022-12-12T23:03:29.110Z,-1.87
2022-12-12T23:08:32.221Z,-1.91
2022-12-12T23:13:35.426Z,-1.94
2022-12-12T23:18:39.880Z,-2.01
2022-12-12T23:23:43.081Z,-2.07
2022-12-12T23:28:47.421Z,-2.14
2022-12-12T23:33:59.547Z,-2.17
2022-12-12T23:39:06.479Z,-2.19
2022-12-12T23:44:12.725Z,-2.19
2022-12-12T23:49:25.945Z,-2.12
2022-12-12T23:54:35.231Z,-2.00
2022-12-12T23:59:39.198Z,-1.96
